createdAt,value
2022-11-24T00:02:19.536Z,75.59
2022-11-24T00:04:49.100Z,75.60
2022-11-24T00:07:18.576Z,75.04
2022-11-24T00:09:49.063Z,75.14
2022-11-24T00:12:21.191Z,76.25
2022-11-24T00:14:50.657Z,76.68
2022-11-24T00:17:20.147Z,76.48
2022-11-24T00:19:49.599Z,76.26
2022-11-24T00:22:19.043Z,76.77
2022-11-24T00:24:48.632Z,76.69
2022-11-24T00:27:18.066Z,76.75
2022-11-24T00:29:50.113Z,76.33
2022-11-24T00:32:19.574Z,75.88
2022-11-24T00:34:49.612Z,76.50
2022-11-24T00:37:19.065Z,76.28
2022-11-24T00:39:48.541Z,76.42
2022-11-24T00:42:18.656Z,77.23
2022-11-24T00:44:50.715Z,77.41
2022-11-24T00:47:20.214Z,77.26
2022-11-24T00:49:49.659Z,77.14
2022-11-24T00:52:19.120Z,76.65
2022-11-24T00:54:48.556Z,76.53
2022-11-24T00:57:17.993Z,77.07
2022-11-24T00:59:50.041Z,77.94
2022-11-24T01:02:19.538Z,77.93
2022-11-24T01:04:49.021Z,78.09
2022-11-24T01:07:18.634Z,78.24
2022-11-24T01:09:48.562Z,78.07
2022-11-24T01:12:18.045Z,77.94
2022-11-24T01:14:50.093Z,78.00
2022-11-24T01:17:19.575Z,78.05
2022-11-24T01:19:50.786Z,78.02
2022-11-24T01:22:20.263Z,77.83
2022-11-24T01:24:49.708Z,78.09
2022-11-24T01:27:19.172Z,77.75
2022-11-24T01:29:51.273Z,77.61
2022-11-24T01:32:20.761Z,77.31
2022-11-24T01:34:50.269Z,77.98
2022-11-24T01:37:19.746Z,77.90
2022-11-24T01:39:49.210Z,77.62
2022-11-24T01:42:18.639Z,77.68
2022-11-24T01:44:50.737Z,78.12
2022-11-24T01:47:27.659Z,77.94
2022-11-24T01:49:58.592Z,78.12
2022-11-24T01:52:29.704Z,78.08
2022-11-24T01:54:59.259Z,77.66
2022-11-24T01:57:29.632Z,77.90
2022-11-24T02:00:03.829Z,78.47
2022-11-24T02:02:33.337Z,78.54
2022-11-24T02:05:05.508Z,78.54
2022-11-24T02:07:35.071Z,78.48
2022-11-24T02:10:06.115Z,78.02
2022-11-24T02:12:35.606Z,78.19
2022-11-24T02:15:08.755Z,78.18
2022-11-24T02:17:38.242Z,78.38
2022-11-24T02:20:09.495Z,78.89
2022-11-24T02:22:42.296Z,78.68
2022-11-24T02:25:14.488Z,79.06
2022-11-24T02:27:52.269Z,80.10
2022-11-24T02:30:23.272Z,79.63
2022-11-24T02:32:52.723Z,79.57
2022-11-24T02:35:22.361Z,79.78
2022-11-24T02:37:51.795Z,79.29
2022-11-24T02:40:25.078Z,79.17
2022-11-24T02:42:59.218Z,79.49
2022-11-24T02:45:28.700Z,79.51
2022-11-24T02:47:58.161Z,79.24
2022-11-24T02:50:27.651Z,79.80
2022-11-24T02:52:57.099Z,79.96
2022-11-24T02:55:26.671Z,79.94
2022-11-24T02:57:58.754Z,79.33
2022-11-24T03:00:28.244Z,79.28
2022-11-24T03:02:58.133Z,79.80
2022-11-24T03:05:27.629Z,79.46
2022-11-24T03:07:57.133Z,79.23
2022-11-24T03:10:28.504Z,79.32
2022-11-24T03:13:00.674Z,78.89
2022-11-24T03:15:30.283Z,79.14
2022-11-24T03:17:59.764Z,78.83
2022-11-24T03:20:29.377Z,78.86
2022-11-24T03:22:59.452Z,78.83
2022-11-24T03:25:28.920Z,78.90
2022-11-24T03:28:01.370Z,78.82
2022-11-24T03:30:30.886Z,78.42
2022-11-24T03:33:00.612Z,78.73
2022-11-24T03:35:30.095Z,78.49
2022-11-24T03:37:59.587Z,78.46
2022-11-24T03:40:29.065Z,78.59
2022-11-24T03:43:01.125Z,78.35
2022-11-24T03:45:45.472Z,78.41
2022-11-24T03:48:15.984Z,78.40
2022-11-24T03:50:45.452Z,77.94
2022-11-24T03:53:14.917Z,78.21
2022-11-24T03:55:46.057Z,77.90
2022-11-24T03:58:17.847Z,77.58
2022-11-24T04:00:47.310Z,77.70
2022-11-24T04:03:16.834Z,78.02
2022-11-24T04:05:46.349Z,78.69
2022-11-24T04:08:16.000Z,78.43
2022-11-24T04:10:45.588Z,78.60
2022-11-24T04:13:16.147Z,78.43
2022-11-24T04:15:45.936Z,78.62
2022-11-24T04:18:15.593Z,78.29
2022-11-24T04:20:45.391Z,78.29
2022-11-24T04:23:14.831Z,78.57
2022-11-24T04:25:44.289Z,78.44
2022-11-24T04:28:13.758Z,78.57
2022-11-24T04:30:45.839Z,78.48
2022-11-24T04:33:15.464Z,78.59
2022-11-24T04:35:44.944Z,78.48
2022-11-24T04:39:26.036Z,78.20
2022-11-24T04:41:04.782Z,78.27
2022-11-24T04:43:40.270Z,78.33
2022-11-24T04:46:14.492Z,77.95
2022-11-24T04:48:44.703Z,77.94
2022-11-24T04:51:15.156Z,78.55
2022-11-24T04:53:44.603Z,77.96
2022-11-24T04:56:14.046Z,78.15
2022-11-24T04:58:43.518Z,78.35
2022-11-24T05:01:15.812Z,78.39
2022-11-24T05:03:45.374Z,79.20
2022-11-24T05:06:15.024Z,78.71
2022-11-24T05:08:44.450Z,79.06
2022-11-24T05:11:13.893Z,78.74
2022-11-24T05:13:43.336Z,79.23
2022-11-24T05:16:15.890Z,79.07
2022-11-24T05:18:45.414Z,79.09
2022-11-24T05:21:14.850Z,79.59
2022-11-24T05:23:44.798Z,79.54
2022-11-24T05:26:14.262Z,79.97
2022-11-24T05:28:43.715Z,79.39
2022-11-24T05:31:15.767Z,79.52
2022-11-24T05:33:45.737Z,79.44
2022-11-24T05:36:35.911Z,79.46
2022-11-24T05:39:05.420Z,79.26
2022-11-24T05:41:34.875Z,79.41
2022-11-24T05:44:04.314Z,79.28
2022-11-24T05:46:36.456Z,79.16
2022-11-24T05:49:06.019Z,79.39
2022-11-24T05:51:35.508Z,80.09
2022-11-24T05:54:04.938Z,79.88
2022-11-24T05:56:34.384Z,79.73
2022-11-24T05:59:09.445Z,79.79
2022-11-24T06:01:42.189Z,79.67
2022-11-24T06:04:11.644Z,79.69
2022-11-24T06:06:41.130Z,80.31
2022-11-24T06:09:10.751Z,82.73
2022-11-24T06:11:40.185Z,83.63
2022-11-24T06:14:11.339Z,83.35
2022-11-24T06:16:43.755Z,83.02
2022-11-24T06:19:13.451Z,82.95
2022-11-24T06:21:42.936Z,82.34
2022-11-24T06:24:12.647Z,82.08
2022-11-24T06:26:42.157Z,82.40
2022-11-24T06:29:11.729Z,82.78
2022-11-24T06:31:43.873Z,83.11
2022-11-24T06:34:13.491Z,83.51
2022-11-24T06:36:42.989Z,83.61
2022-11-24T06:39:12.706Z,83.22
2022-11-24T06:41:42.181Z,83.09
2022-11-24T06:44:11.870Z,83.49
2022-11-24T06:46:43.946Z,84.08
2022-11-24T06:49:13.475Z,84.53
2022-11-24T06:51:43.033Z,84.11
2022-11-24T06:54:12.937Z,83.67
2022-11-24T06:56:42.432Z,83.63
2022-11-24T06:59:18.454Z,82.94
2022-11-24T07:01:50.527Z,82.12
2022-11-24T07:04:20.064Z,81.89
2022-11-24T07:06:49.618Z,81.93
2022-11-24T07:09:19.091Z,81.68
2022-11-24T07:11:48.568Z,81.78
2022-11-24T07:14:19.191Z,81.23
2022-11-24T07:16:51.337Z,81.33
2022-11-24T07:19:24.907Z,81.07
2022-11-24T07:21:54.729Z,81.08
2022-11-24T07:24:24.210Z,80.78
2022-11-24T07:26:53.615Z,81.38
2022-11-24T07:29:23.337Z,80.48
2022-11-24T07:31:55.392Z,80.90
2022-11-24T07:34:25.387Z,81.39
2022-11-24T07:36:54.931Z,81.46
2022-11-24T07:39:24.496Z,81.26
2022-11-24T07:41:54.055Z,81.29
2022-11-24T07:44:23.605Z,81.09
2022-11-24T07:46:55.770Z,80.95
2022-11-24T07:49:25.375Z,81.10
2022-11-24T07:51:54.943Z,81.25
2022-11-24T07:54:24.499Z,81.67
2022-11-24T07:56:54.058Z,82.59
2022-11-24T07:59:23.690Z,82.31
2022-11-24T08:01:55.796Z,82.03
2022-11-24T08:04:25.492Z,81.17
2022-11-24T08:06:55.053Z,80.83
2022-11-24T08:09:24.632Z,80.80
2022-11-24T08:11:54.192Z,80.61
2022-11-24T08:14:23.831Z,81.32
2022-11-24T08:16:56.068Z,80.26
2022-11-24T08:19:25.716Z,80.41
2022-11-24T08:21:55.317Z,79.76
2022-11-24T08:24:24.898Z,79.69
2022-11-24T08:26:54.651Z,79.67
2022-11-24T08:29:24.227Z,80.10
2022-11-24T08:31:57.307Z,79.53
2022-11-24T08:34:27.135Z,79.72
2022-11-24T08:36:56.743Z,78.73
2022-11-24T08:39:26.462Z,78.72
2022-11-24T08:41:56.033Z,77.74
2022-11-24T08:44:25.692Z,78.06
2022-11-24T08:46:59.120Z,77.61
2022-11-24T08:49:28.953Z,77.07
2022-11-24T08:52:00.031Z,75.68
2022-11-24T08:54:29.409Z,75.38
2022-11-24T08:56:58.926Z,75.17
2022-11-24T08:59:28.561Z,75.45
2022-11-24T09:02:00.653Z,75.04
2022-11-24T09:04:30.202Z,74.06
2022-11-24T09:07:00.218Z,73.68
2022-11-24T09:09:29.718Z,73.56
2022-11-24T09:11:59.197Z,72.75
2022-11-24T09:14:28.781Z,72.47
2022-11-24T09:17:01.090Z,71.16
2022-11-24T09:19:30.689Z,69.79
2022-11-24T09:22:00.172Z,69.27
2022-11-24T09:24:29.667Z,67.29
2022-11-24T09:26:59.155Z,69.11
2022-11-24T09:29:28.647Z,68.68
2022-11-24T09:32:06.565Z,68.36
2022-11-24T09:34:36.617Z,67.46
2022-11-24T09:37:06.107Z,66.95
2022-11-24T09:39:35.812Z,65.45
2022-11-24T09:42:12.920Z,64.76
2022-11-24T09:45:13.413Z,63.86
2022-11-24T09:47:50.592Z,63.67
2022-11-24T09:50:24.268Z,64.68
2022-11-24T09:52:59.263Z,64.38
2022-11-24T09:55:34.243Z,64.25
2022-11-24T09:58:12.370Z,64.26
2022-11-24T10:00:41.857Z,64.49
2022-11-24T10:03:18.064Z,64.98
2022-11-24T10:05:47.516Z,64.09
2022-11-24T10:08:26.743Z,64.67
2022-11-24T10:10:59.601Z,63.80
2022-11-24T10:13:39.649Z,62.67
2022-11-24T10:16:13.063Z,62.71
2022-11-24T10:18:53.961Z,61.16
2022-11-24T10:21:54.728Z,61.34
2022-11-24T10:24:52.940Z,60.96
2022-11-24T10:27:24.735Z,61.69
2022-11-24T10:29:55.151Z,61.67
2022-11-24T10:32:26.965Z,62.07
2022-11-24T10:34:59.070Z,61.39
2022-11-24T10:37:30.506Z,60.20
2022-11-24T10:40:03.495Z,58.90
2022-11-24T10:42:33.744Z,57.96
2022-11-24T10:45:04.104Z,57.90
2022-11-24T10:47:33.920Z,58.66
2022-11-24T10:50:07.884Z,57.99
2022-11-24T10:52:39.673Z,58.57
2022-11-24T10:55:09.976Z,58.21
2022-11-24T10:57:41.034Z,57.50
2022-11-24T11:00:25.619Z,58.81
2022-11-24T11:03:13.557Z,58.70
2022-11-24T11:05:46.309Z,58.56
2022-11-24T11:08:26.473Z,59.29
2022-11-24T11:11:17.825Z,58.80
2022-11-24T11:13:52.318Z,58.53
2022-11-24T11:16:39.773Z,58.27
2022-11-24T11:22:22.997Z,56.92
2022-11-24T11:24:52.577Z,56.45
2022-11-24T11:27:22.909Z,56.59
2022-11-24T11:35:34.630Z,55.76
2022-11-24T11:38:06.934Z,55.66
2022-11-24T11:40:36.404Z,56.63
2022-11-24T11:43:07.336Z,56.26
2022-11-24T11:45:37.698Z,54.88
2022-11-24T11:48:23.028Z,55.56
2022-11-24T11:51:21.869Z,54.66
2022-11-24T11:53:49.547Z,52.43
2022-11-24T11:56:24.592Z,53.43
2022-11-24T11:59:00.600Z,52.05
2022-11-24T12:01:39.986Z,52.25
2022-11-24T12:04:16.593Z,51.08
2022-11-24T12:07:03.405Z,52.58
2022-11-24T12:09:43.477Z,51.91
2022-11-24T12:12:25.924Z,51.12
2022-11-24T12:15:00.310Z,50.81
2022-11-24T12:17:33.367Z,53.25
2022-11-24T12:20:36.269Z,52.03
2022-11-24T12:23:10.727Z,51.26
2022-11-24T12:25:43.834Z,51.53
2022-11-24T12:28:24.792Z,51.11
2022-11-24T12:30:59.340Z,51.14
2022-11-24T12:33:36.793Z,51.40
2022-11-24T12:36:09.173Z,52.49
2022-11-24T12:38:46.793Z,52.03
2022-11-24T12:41:42.768Z,52.97
2022-11-24T12:44:17.462Z,51.70
2022-11-24T12:46:50.468Z,51.84
2022-11-24T12:49:23.807Z,50.12
2022-11-24T12:51:56.265Z,49.61
2022-11-24T12:54:25.762Z,49.68
2022-11-24T12:57:00.881Z,48.99
2022-11-24T12:59:34.615Z,48.86
2022-11-24T13:02:07.887Z,48.83
2022-11-24T13:04:38.833Z,49.09
2022-11-24T13:07:12.542Z,48.30
2022-11-24T13:09:43.403Z,50.34
2022-11-24T13:12:17.013Z,51.01
2022-11-24T13:14:52.408Z,50.65
2022-11-24T13:17:38.299Z,51.31
2022-11-24T13:20:22.961Z,51.36
2022-11-24T13:22:52.943Z,51.58
2022-11-24T13:25:23.806Z,52.01
2022-11-24T13:27:57.679Z,51.91
2022-11-24T13:30:57.211Z,52.79
2022-11-24T13:33:45.508Z,52.33
2022-11-24T13:36:36.084Z,52.09
2022-11-24T13:39:06.729Z,51.42
2022-11-24T13:42:42.627Z,51.56
2022-11-24T13:45:07.448Z,51.28
2022-11-24T13:47:41.805Z,52.05
2022-11-24T13:50:13.304Z,53.30
2022-11-24T13:52:48.380Z,51.50
2022-11-24T13:55:23.292Z,51.01
2022-11-24T14:00:58.718Z,50.89
2022-11-24T14:03:29.515Z,50.56
2022-11-24T14:05:59.001Z,50.44
2022-11-24T14:08:29.057Z,50.02
2022-11-24T14:10:59.025Z,50.39
2022-11-24T14:13:28.907Z,49.83
2022-11-24T14:16:08.530Z,50.78
2022-11-24T14:18:38.870Z,51.34
2022-11-24T14:21:24.202Z,51.47
2022-11-24T14:23:54.826Z,51.37
2022-11-24T14:26:25.509Z,51.59
2022-11-24T14:28:55.065Z,51.45
2022-11-24T14:31:28.156Z,51.85
2022-11-24T14:34:15.376Z,52.30
2022-11-24T14:36:44.907Z,52.47
2022-11-24T14:39:15.028Z,52.15
2022-11-24T14:41:44.951Z,53.07
2022-11-24T14:44:19.748Z,52.86
2022-11-24T14:46:51.853Z,53.27
2022-11-24T14:49:22.472Z,53.83
2022-11-24T14:51:55.252Z,54.38
2022-11-24T14:54:24.741Z,54.12
2022-11-24T14:57:01.939Z,53.93
2022-11-24T14:59:32.187Z,54.53
2022-11-24T15:02:04.425Z,54.18
2022-11-24T15:07:26.598Z,53.72
2022-11-24T15:09:58.038Z,53.79
2022-11-24T15:12:30.796Z,53.89
2022-11-24T15:15:01.377Z,54.38
2022-11-24T15:17:33.602Z,54.82
2022-11-24T15:20:04.778Z,55.36
2022-11-24T15:22:41.490Z,54.75
2022-11-24T15:25:30.070Z,56.37
2022-11-24T15:27:59.562Z,57.11
2022-11-24T15:30:29.313Z,57.60
2022-11-24T15:33:01.736Z,57.82
2022-11-24T15:35:33.187Z,58.30
2022-11-24T15:38:02.903Z,58.52
2022-11-24T15:40:32.503Z,58.65
2022-11-24T15:43:06.239Z,58.32
2022-11-24T15:45:36.698Z,59.25
2022-11-24T15:48:12.319Z,58.68
2022-11-24T15:50:44.336Z,59.07
2022-11-24T15:53:15.057Z,59.57
2022-11-24T15:55:44.521Z,59.74
2022-11-24T15:58:14.348Z,59.82
2022-11-24T16:00:43.880Z,59.82
2022-11-24T16:03:45.901Z,59.72
2022-11-24T16:06:05.736Z,59.74
2022-11-24T16:08:35.195Z,59.93
2022-11-24T16:11:04.656Z,59.51
2022-11-24T16:13:34.173Z,60.76
2022-11-24T16:16:03.668Z,60.42
2022-11-24T16:18:39.398Z,60.75
2022-11-24T16:21:09.648Z,61.00
2022-11-24T16:23:39.128Z,61.13
2022-11-24T16:26:08.976Z,61.74
2022-11-24T16:28:38.786Z,61.10
2022-11-24T16:31:08.341Z,61.27
2022-11-24T16:33:41.049Z,61.92
2022-11-24T16:36:11.536Z,62.30
2022-11-24T16:38:41.074Z,61.91
2022-11-24T16:41:11.095Z,62.33
2022-11-24T16:43:40.797Z,62.61
2022-11-24T16:46:20.327Z,62.38
2022-11-24T16:48:53.053Z,62.49
2022-11-24T16:51:23.274Z,62.89
2022-11-24T16:53:59.185Z,62.27
2022-11-24T16:56:28.982Z,63.06
2022-11-24T16:58:58.538Z,62.53
2022-11-24T17:01:29.638Z,62.58
2022-11-24T17:04:01.912Z,62.78
2022-11-24T17:06:31.476Z,62.60
2022-11-24T17:09:00.945Z,62.54
2022-11-24T17:11:30.695Z,62.86
2022-11-24T17:14:00.471Z,62.74
2022-11-24T17:16:30.227Z,63.40
2022-11-24T17:19:02.295Z,63.87
2022-11-24T17:21:32.207Z,64.04
2022-11-24T17:24:02.691Z,63.57
2022-11-24T17:26:32.392Z,63.09
2022-11-24T17:29:01.839Z,63.73
2022-11-24T17:31:32.389Z,63.64
2022-11-24T17:34:05.404Z,63.63
2022-11-24T17:36:35.472Z,62.94
2022-11-24T17:39:05.692Z,63.37
2022-11-24T17:41:35.350Z,62.94
2022-11-24T17:44:04.807Z,63.43
2022-11-24T17:46:34.492Z,63.05
2022-11-24T17:49:06.715Z,63.26
2022-11-24T17:51:36.159Z,63.18
2022-11-24T17:54:31.157Z,64.90
2022-11-24T17:56:55.268Z,65.17
2022-11-24T17:59:24.734Z,65.13
2022-11-24T18:01:54.228Z,65.00
2022-11-24T18:04:26.318Z,64.97
2022-11-24T18:06:55.756Z,64.23
2022-11-24T18:09:25.458Z,63.90
2022-11-24T18:11:54.952Z,63.87
2022-11-24T18:14:24.436Z,63.38
2022-11-24T18:16:54.001Z,63.52
2022-11-24T18:19:26.160Z,63.58
2022-11-24T18:21:55.633Z,63.51
2022-11-24T18:24:25.081Z,63.62
2022-11-24T18:26:54.541Z,63.56
2022-11-24T18:29:24.302Z,63.51
2022-11-24T18:31:54.070Z,63.71
2022-11-24T18:34:26.884Z,63.46
2022-11-24T18:36:56.388Z,63.71
2022-11-24T18:39:26.647Z,63.84
2022-11-24T18:41:56.313Z,63.67
2022-11-24T18:44:25.839Z,64.16
2022-11-24T18:46:55.299Z,64.26
2022-11-24T18:49:27.314Z,64.69
2022-11-24T18:51:56.756Z,64.95
2022-11-24T18:54:27.341Z,65.43
2022-11-24T18:57:02.961Z,65.02
2022-11-24T18:59:33.068Z,64.72
2022-11-24T19:02:02.586Z,65.04
2022-11-24T19:04:35.053Z,64.90
2022-11-24T19:07:04.535Z,64.45
2022-11-24T19:09:34.003Z,64.85
2022-11-24T19:12:04.204Z,65.25
2022-11-24T19:14:33.947Z,65.33
2022-11-24T19:17:03.898Z,65.54
2022-11-24T19:19:36.041Z,65.91
2022-11-24T19:22:05.607Z,66.29
2022-11-24T19:24:35.183Z,66.29
2022-11-24T19:27:05.154Z,66.29
2022-11-24T19:29:37.863Z,66.34
2022-11-24T19:32:09.896Z,66.17
2022-11-24T19:34:42.013Z,66.28
2022-11-24T19:37:11.438Z,66.15
2022-11-24T19:39:40.902Z,66.21
2022-11-24T19:42:10.335Z,66.25
2022-11-24T19:44:39.790Z,66.28
2022-11-24T19:47:09.227Z,66.09
2022-11-24T19:49:38.664Z,66.33
2022-11-24T19:52:10.724Z,66.08
2022-11-24T19:54:40.579Z,65.84
2022-11-24T19:57:10.070Z,66.38
2022-11-24T19:59:39.560Z,65.87
2022-11-24T20:02:09.219Z,65.44
2022-11-24T20:04:41.313Z,65.69
2022-11-24T20:07:13.406Z,66.19
2022-11-24T20:09:42.869Z,65.88
2022-11-24T20:12:12.614Z,66.09
2022-11-24T20:14:42.065Z,66.13
2022-11-24T20:17:13.168Z,66.22
2022-11-24T20:19:42.363Z,66.57
2022-11-24T20:22:14.380Z,66.77
2022-11-24T20:24:44.111Z,66.68
2022-11-24T20:27:13.536Z,67.16
2022-11-24T20:29:46.795Z,66.73
2022-11-24T20:32:19.626Z,66.84
2022-11-24T20:34:49.381Z,67.11
2022-11-24T20:37:21.422Z,67.64
2022-11-24T20:39:50.851Z,68.13
2022-11-24T20:42:20.287Z,68.27
2022-11-24T20:44:49.756Z,67.95
2022-11-24T20:47:19.196Z,67.65
2022-11-24T20:49:49.222Z,67.99
2022-11-24T20:52:21.281Z,68.82
2022-11-24T20:54:50.738Z,67.59
2022-11-24T20:57:20.187Z,67.23
2022-11-24T20:59:50.001Z,66.44
2022-11-24T21:02:20.108Z,67.12
2022-11-24T21:04:49.584Z,66.74
2022-11-24T21:07:21.638Z,66.55
2022-11-24T21:09:51.085Z,66.88
2022-11-24T21:12:20.540Z,66.77
2022-11-24T21:14:49.983Z,66.14
2022-11-24T21:17:19.459Z,66.18
2022-11-24T21:19:49.287Z,66.04
2022-11-24T21:22:21.322Z,66.06
2022-11-24T21:24:50.748Z,66.21
2022-11-24T21:27:20.199Z,66.08
2022-11-24T21:29:49.636Z,65.81
2022-11-24T21:32:19.227Z,65.83
2022-11-24T21:34:48.839Z,65.56
2022-11-24T21:37:20.965Z,66.16
2022-11-24T21:39:50.388Z,66.37
2022-11-24T21:42:19.834Z,66.54
2022-11-24T21:44:49.310Z,66.00
2022-11-24T21:47:18.772Z,66.57
2022-11-24T21:49:48.537Z,66.75
2022-11-24T21:52:18.016Z,67.57
2022-11-24T21:54:50.327Z,67.18
2022-11-24T21:57:19.792Z,67.59
2022-11-24T21:59:49.523Z,67.20
2022-11-24T22:02:19.114Z,67.23
2022-11-24T22:04:48.588Z,67.16
2022-11-24T22:07:18.122Z,66.91
2022-11-24T22:09:50.192Z,67.15
2022-11-24T22:12:19.682Z,67.42
2022-11-24T22:14:49.143Z,67.03
2022-11-24T22:17:18.622Z,67.37
2022-11-24T22:19:48.278Z,67.23
2022-11-24T22:22:17.762Z,67.36
2022-11-24T22:24:49.801Z,67.67
2022-11-24T22:27:19.270Z,67.11
2022-11-24T22:29:53.871Z,67.75
2022-11-24T22:32:23.897Z,67.71
2022-11-24T22:34:53.360Z,68.08
2022-11-24T22:37:22.856Z,67.60
2022-11-24T22:39:54.927Z,67.59
2022-11-24T22:42:24.407Z,67.84
2022-11-24T22:44:53.928Z,67.43
2022-11-24T22:47:23.406Z,67.23
2022-11-24T22:49:53.159Z,67.40
2022-11-24T22:52:22.700Z,67.43
2022-11-24T22:54:54.715Z,67.22
2022-11-24T22:57:24.200Z,67.15
2022-11-24T22:59:53.624Z,66.99
2022-11-24T23:02:23.042Z,66.75
2022-11-24T23:04:52.508Z,66.77
2022-11-24T23:07:21.957Z,67.29
2022-11-24T23:09:54.025Z,67.58
2022-11-24T23:12:23.516Z,68.21
2022-11-24T23:14:52.950Z,68.00
2022-11-24T23:17:22.394Z,68.00
2022-11-24T23:19:52.043Z,68.31
2022-11-24T23:22:21.500Z,67.78
2022-11-24T23:24:51.014Z,67.89
2022-11-24T23:27:23.098Z,67.67
2022-11-24T23:29:52.558Z,68.29
2022-11-24T23:32:22.004Z,68.38
2022-11-24T23:34:51.461Z,68.17
2022-11-24T23:37:26.499Z,68.62
2022-11-24T23:40:03.840Z,67.99
2022-11-24T23:42:35.904Z,67.82
2022-11-24T23:45:05.880Z,68.62
2022-11-24T23:47:35.344Z,68.34
2022-11-24T23:50:08.312Z,68.44
2022-11-24T23:52:37.809Z,68.81
2022-11-24T23:55:08.479Z,68.29
2022-11-24T23:57:40.538Z,68.19
